Time;durP1;ratioP1;P1;durP2;ratioP2;P2;SDS_P1;SDS_P2;PMS_P1;PMS_P2;Temp;Humidity;BMP_temperature;BMP_pressure;BME280_temperature;BME280_humidity;BME280_pressure;Samples;Min_cycle;Max_cycle;Signal;HPM_P1;HPM_P2
2023/05/23 00:04:39;;;;;;;20.40;18.23;;;;;;;20.89;50.85;99619.88;10322894;28;20668;-35
2023/05/23 00:09:41;;;;;;;22.00;18.90;;;;;;;20.11;52.13;99599.94;10320373;28;20210;-35
2023/05/23 00:14:44;;;;;;;20.90;18.63;;;;;;;20.73;50.43;99567.19;10321087;28;20711;-35
2023/05/23 00:19:45;;;;;;;25.00;20.05;;;;;;;19.88;51.92;99613.75;10325179;28;20316;-35
2023/05/23 00:24:47;;;;;;;26.30;21.95;;;;;;;21.10;49.49;99569.16;10319070;28;20399;-35
2023/05/23 00:29:49;;;;;;;29.38;23.50;;;;;;;20.01;51.60;99617.97;10322062;28;20570;-35
2023/05/23 00:34:52;;;;;;;25.90;22.70;;;;;;;20.62;50.95;99609.78;10320831;28;20257;-35
2023/05/23 00:39:54;;;;;;;27.67;24.17;;;;;;;19.33;53.39;99637.91;10327087;28;20585;-35
2023/05/23 00:44:56;;;;;;;28.77;24.20;;;;;;;19.78;53.12;99678.75;10320173;28;20326;-35
2023/05/23 00:49:58;;;;;;;34.40;27.63;;;;;;;19.20;53.75;99679.72;10321501;28;20264;-35
2023/05/23 00:55:00;;;;;;;31.50;26.92;;;;;;;18.33;55.82;99678.00;10315010;28;20248;-35
2023/05/23 01:00:03;;;;;;;28.17;24.13;;;;;;;20.45;51.71;99618.03;10320344;28;20229;-35
2023/05/23 01:05:05;;;;;;;29.00;23.80;;;;;;;19.51;53.04;99649.56;10318152;28;20259;-35
2023/05/23 01:10:10;;;;;;;29.08;24.58;;;;;;;21.20;50.81;99653.59;10324322;28;20209;-35
2023/05/23 01:15:16;;;;;;;29.38;23.40;;;;;;;21.88;48.71;99579.47;10317422;28;20281;-35
2023/05/23 01:20:21;;;;;;;25.60;21.48;;;;;;;22.03;48.18;99576.03;10317992;28;20599;-35
2023/05/23 01:25:58;;;;;;;24.45;21.20;;;;;;;22.00;48.01;99596.47;10318464;28;20699;-35
2023/05/23 01:31:03;;;;;;;23.60;19.27;;;;;;;21.75;48.62;99595.22;10318818;28;20232;-35
2023/05/23 01:36:05;;;;;;;20.95;17.00;;;;;;;21.55;48.53;99614.16;10311828;28;20420;-34
2023/05/23 01:41:06;;;;;;;19.98;16.67;;;;;;;21.46;48.54;99605.66;10324959;28;20667;-35
2023/05/23 01:46:09;;;;;;;19.88;17.77;;;;;;;21.38;48.65;99596.06;10313291;28;20350;-35
2023/05/23 01:51:12;;;;;;;24.95;21.60;;;;;;;21.77;48.05;99623.00;10323862;28;20675;-35
2023/05/23 01:56:14;;;;;;;24.85;22.17;;;;;;;20.63;50.30;99673.91;10308785;28;20635;-35
2023/05/23 02:01:16;;;;;;;28.38;24.42;;;;;;;20.80;50.69;99654.84;10314742;28;20287;-35
2023/05/23 02:06:18;;;;;;;26.48;22.55;;;;;;;21.42;49.08;99640.75;10312627;28;20241;-35
2023/05/23 02:11:21;;;;;;;27.42;22.38;;;;;;;21.14;49.10;99633.69;10314184;28;20700;-35
2023/05/23 02:16:24;;;;;;;30.08;25.30;;;;;;;19.11;52.24;99637.78;10320641;28;20269;-36
2023/05/23 02:21:26;;;;;;;33.90;25.80;;;;;;;19.11;52.92;99697.44;10316187;28;20324;-35
2023/05/23 02:26:29;;;;;;;29.42;26.25;;;;;;;17.46;56.28;99684.06;10318671;28;20320;-35
2023/05/23 02:31:30;;;;;;;32.87;27.97;;;;;;;17.25;56.94;99717.91;10314027;28;20313;-35
2023/05/23 02:36:33;;;;;;;30.13;26.58;;;;;;;17.26;56.81;99744.72;10313856;28;20238;-35
2023/05/23 02:41:35;;;;;;;29.88;26.42;;;;;;;17.60;56.27;99741.53;10312223;28;20714;-36
2023/05/23 02:46:37;;;;;;;34.63;27.67;;;;;;;17.19;57.43;99762.88;10313665;28;20242;-35
2023/05/23 02:51:39;;;;;;;34.43;27.03;;;;;;;17.23;57.37;99774.09;10312767;28;20222;-35
2023/05/23 02:56:41;;;;;;;32.93;28.23;;;;;;;17.01;57.50;99776.47;10306038;28;20241;-35
2023/05/23 03:01:42;;;;;;;30.93;26.90;;;;;;;17.24;56.84;99773.88;10312931;28;20324;-35
2023/05/23 03:06:44;;;;;;;30.87;26.10;;;;;;;17.95;55.06;99771.38;10311056;28;20244;-35
2023/05/23 03:11:46;;;;;;;31.17;26.47;;;;;;;18.56;53.46;99735.94;10310994;28;20324;-35
2023/05/23 03:16:48;;;;;;;31.43;26.43;;;;;;;17.45;55.47;99761.69;10320933;23;21970;-69
2023/05/23 03:21:51;;;;;;;30.37;27.10;;;;;;;17.13;56.70;99812.50;10321876;28;20236;-67
2023/05/23 03:26:52;;;;;;;29.03;25.87;;;;;;;17.59;55.53;99793.97;10353541;28;20505;-66
2023/05/23 03:31:54;;;;;;;29.03;26.07;;;;;;;16.69;56.87;99788.22;10353520;28;20704;-68
2023/05/23 03:36:56;;;;;;;31.70;28.37;;;;;;;16.64;57.48;99798.06;10351846;28;20224;-68
2023/05/23 03:41:57;;;;;;;30.97;27.77;;;;;;;16.61;57.89;99816.34;10353486;28;20243;-68
2023/05/23 03:46:59;;;;;;;31.43;26.87;;;;;;;16.83;57.27;99815.91;10352806;28;20672;-68
2023/05/23 03:52:01;;;;;;;34.80;27.83;;;;;;;17.90;55.57;99828.91;10355158;28;20240;-67
2023/05/23 03:57:03;;;;;;;30.20;26.67;;;;;;;18.53;53.49;99787.88;10349614;28;20229;-66
2023/05/23 04:02:04;;;;;;;29.00;26.00;;;;;;;18.91;53.13;99816.31;10346434;28;20573;-66
2023/05/23 04:07:08;;;;;;;28.07;25.10;;;;;;;17.95;54.51;99811.97;10352228;28;20241;-68
2023/05/23 04:12:10;;;;;;;31.57;27.17;;;;;;;18.07;55.16;99842.59;10360414;28;20306;-68
2023/05/23 04:17:12;;;;;;;31.10;26.85;;;;;;;18.04;54.58;99829.50;10357336;28;20364;-67
2023/05/23 04:22:14;;;;;;;30.00;26.80;;;;;;;17.08;56.22;99842.09;10360473;28;20228;-67
2023/05/23 04:27:15;;;;;;;31.77;28.47;;;;;;;16.76;56.99;99834.91;10357998;28;20235;-66
2023/05/23 04:32:18;;;;;;;29.53;26.33;;;;;;;18.81;53.85;99849.44;10360540;28;20248;-67
2023/05/23 04:37:24;;;;;;;31.85;27.33;;;;;;;17.21;55.61;99824.84;10358928;28;20222;-66
2023/05/23 04:42:28;;;;;;;31.97;28.07;;;;;;;17.44;55.92;99878.25;10362209;28;20259;-67
2023/05/23 04:47:33;;;;;;;30.70;27.50;;;;;;;17.70;55.63;99869.81;10367146;28;20255;-67
2023/05/23 04:52:37;;;;;;;29.98;26.77;;;;;;;17.64;55.32;99869.91;10350967;28;20229;-67
2023/05/23 04:57:39;;;;;;;32.20;27.23;;;;;;;16.86;57.12;99847.09;10350636;28;20283;-65
2023/05/23 05:02:41;;;;;;;29.52;26.25;;;;;;;18.12;54.70;99852.72;10353415;28;20240;-68
2023/05/23 05:07:43;;;;;;;27.70;24.90;;;;;;;18.82;53.60;99879.03;10363965;28;20232;-68
2023/05/23 05:12:45;;;;;;;28.40;25.43;;;;;;;17.91;54.57;99844.06;10357638;28;20336;-68
2023/05/23 05:17:47;;;;;;;28.00;25.10;;;;;;;17.76;54.49;99849.09;10355512;28;20735;-68
2023/05/23 05:22:57;;;;;;;27.63;24.67;;;;;;;19.02;52.27;99856.19;10362601;28;20241;-68
2023/05/23 05:28:04;;;;;;;25.53;22.83;;;;;;;17.91;54.42;99849.50;10355093;28;20319;-66
2023/05/23 05:33:06;;;;;;;27.30;24.40;;;;;;;18.43;54.08;99886.00;10355810;28;20255;-68
2023/05/23 05:38:09;;;;;;;26.63;24.03;;;;;;;18.50;53.92;99853.38;10357487;28;20248;-67
2023/05/23 05:43:11;;;;;;;26.47;23.67;;;;;;;19.31;52.79;99889.59;10357433;28;20321;-68
2023/05/23 05:48:13;;;;;;;28.07;25.23;;;;;;;18.63;53.48;99880.25;10319769;28;20693;-66
2023/05/23 05:53:15;;;;;;;25.33;22.83;;;;;;;18.76;53.03;99888.13;10337304;28;20235;-68
2023/05/23 05:58:16;;;;;;;25.00;21.93;;;;;;;18.19;53.69;99858.84;10346730;28;20240;-68
2023/05/23 06:03:18;;;;;;;25.20;22.60;;;;;;;19.89;51.15;99876.03;10339050;28;20227;-68
2023/05/23 06:08:21;;;;;;;24.03;21.53;;;;;;;20.72;49.89;99872.78;10348795;28;20216;-68
2023/05/23 06:13:22;;;;;;;22.40;20.20;;;;;;;21.10;48.70;99846.66;10347792;28;20249;-68
2023/05/23 06:18:25;;;;;;;23.23;20.92;;;;;;;20.96;48.98;99838.88;10345197;28;20240;-68
2023/05/23 06:23:27;;;;;;;22.13;19.93;;;;;;;19.02;51.53;99883.28;10339114;28;20253;-68
2023/05/23 06:28:28;;;;;;;23.88;20.30;;;;;;;19.68;50.98;99839.56;10347790;28;20523;-68
2023/05/23 06:33:31;;;;;;;21.57;19.37;;;;;;;18.34;52.17;99888.25;10337854;28;20237;-68
2023/05/23 06:38:33;;;;;;;21.20;18.97;;;;;;;18.51;53.07;99918.16;10345046;28;20237;-69
2023/05/23 06:43:34;;;;;;;21.00;19.00;;;;;;;18.46;52.13;99896.38;10344103;28;20237;-68
2023/05/23 06:48:36;;;;;;;21.30;18.73;;;;;;;18.28;52.90;99899.97;10341854;28;20237;-68
2023/05/23 06:53:38;;;;;;;21.70;19.40;;;;;;;17.87;53.39;99866.44;10342515;28;20320;-68
2023/05/23 06:58:40;;;;;;;19.60;17.57;;;;;;;18.41;53.38;99939.59;10349682;28;20319;-68
2023/05/23 07:03:44;;;;;;;17.30;15.60;;;;;;;19.22;51.32;99922.78;10346524;28;20784;-68
2023/05/23 07:08:45;;;;;;;18.93;17.00;;;;;;;17.20;53.44;99901.63;10349792;28;20423;-68
2023/05/23 07:13:47;;;;;;;18.93;16.93;;;;;;;17.98;52.61;99959.56;10338307;28;20714;-68
2023/05/23 07:18:48;;;;;;;17.20;15.53;;;;;;;18.79;51.74;99958.13;10347835;28;20323;-68
2023/05/23 07:23:50;;;;;;;16.50;14.90;;;;;;;17.21;53.10;99943.81;10339878;28;20248;-68
2023/05/23 07:28:52;;;;;;;16.47;14.77;;;;;;;16.68;53.52;99931.66;10343742;28;20225;-69
2023/05/23 07:33:53;;;;;;;17.37;15.03;;;;;;;18.00;52.37;99992.66;10344683;28;20244;-68
2023/05/23 07:38:57;;;;;;;16.53;14.83;;;;;;;17.29;52.83;99963.31;10333601;28;20589;-68
2023/05/23 07:43:59;;;;;;;16.07;14.40;;;;;;;16.73;53.77;99931.81;10346175;28;20752;-68
2023/05/23 07:49:00;;;;;;;17.17;15.30;;;;;;;17.77;52.37;99960.91;10348268;28;20732;-68
2023/05/23 07:54:02;;;;;;;15.47;13.97;;;;;;;19.41;50.70;99983.13;10354825;28;20241;-68
2023/05/23 07:59:04;;;;;;;13.87;12.57;;;;;;;18.25;51.67;99987.09;10350564;28;20276;-68
2023/05/23 08:04:05;;;;;;;11.47;10.30;;;;;;;17.41;51.49;99955.28;10348978;28;20237;-68
2023/05/23 08:09:08;;;;;;;11.07;9.97;;;;;;;18.17;50.51;99984.69;10346037;28;20233;-68
2023/05/23 08:14:10;;;;;;;13.30;9.73;;;;;;;18.17;49.37;99954.91;10350359;28;20245;-68
2023/05/23 08:19:11;;;;;;;12.07;9.83;;;;;;;18.76;49.22;99972.16;10355594;28;20264;-68
2023/05/23 08:24:13;;;;;;;11.10;8.83;;;;;;;17.79;50.40;99978.56;10345207;28;20255;-69
2023/05/23 08:29:15;;;;;;;10.07;8.77;;;;;;;18.07;50.55;100012.34;10341208;28;20251;-69
2023/05/23 08:34:17;;;;;;;10.60;9.50;;;;;;;19.47;48.53;100002.00;10343794;28;20265;-68
2023/05/23 08:39:19;;;;;;;10.50;9.40;;;;;;;17.79;50.01;99973.13;10351548;28;20714;-68
2023/05/23 08:44:20;;;;;;;9.63;8.73;;;;;;;18.35;50.60;100029.91;10347267;28;20260;-68
2023/05/23 08:49:22;;;;;;;12.27;8.00;;;;;;;18.86;48.18;99966.16;10344104;28;20349;-68
2023/05/23 08:54:25;;;;;;;12.47;8.30;;;;;;;18.63;48.64;100003.00;10349023;28;20352;-68
2023/05/23 08:59:26;;;;;;;10.50;8.33;;;;;;;19.18;47.30;99980.19;10347724;28;20275;-68
2023/05/23 09:04:31;;;;;;;11.27;8.73;;;;;;;19.65;46.74;99952.16;10344296;28;20724;-67
2023/05/23 09:09:32;;;;;;;10.30;8.47;;;;;;;18.28;47.89;99982.06;10343067;28;20237;-67
2023/05/23 09:14:36;;;;;;;11.10;8.20;;;;;;;20.02;46.81;100000.66;10355243;28;20315;-67
2023/05/23 09:19:40;;;;;;;9.20;8.30;;;;;;;18.80;47.17;100029.44;10352656;28;20246;-69
2023/05/23 09:24:43;;;;;;;11.37;7.53;;;;;;;18.14;47.30;99998.72;10344370;28;20242;-68
2023/05/23 09:29:46;;;;;;;9.88;7.50;;;;;;;19.89;45.67;100009.94;10345080;28;20281;-68
2023/05/23 09:34:55;;;;;;;7.93;6.82;;;;;;;19.90;45.56;99995.28;10344257;28;20276;-67
2023/05/23 09:40:08;;;;;;;6.87;6.27;;;;;;;18.50;46.63;100007.81;10341291;28;20237;-68
2023/05/23 09:45:15;;;;;;;5.68;5.10;;;;;;;20.57;43.67;99988.38;10335855;28;20245;-69
2023/05/23 09:50:17;;;;;;;8.15;5.93;;;;;;;20.43;44.15;99976.16;10347435;28;21267;-69
2023/05/23 09:55:19;;;;;;;6.65;5.95;;;;;;;20.17;44.65;99992.00;10348742;28;20264;-68
2023/05/23 10:00:24;;;;;;;6.18;5.32;;;;;;;19.53;45.78;100001.00;10354554;28;20328;-69
2023/05/23 10:05:47;;;;;;;5.60;5.00;;;;;;;19.87;44.75;99987.63;10340704;28;20279;-69
2023/05/23 10:10:54;;;;;;;5.70;5.03;;;;;;;19.02;45.25;100003.41;10347679;28;20658;-69
2023/05/23 10:16:11;;;;;;;6.00;5.40;;;;;;;20.12;44.10;99964.72;10331481;28;20248;-69
2023/05/23 10:21:23;;;;;;;5.95;4.93;;;;;;;19.66;44.36;99985.56;10313406;28;20312;-69
2023/05/23 10:26:26;;;;;;;5.95;5.35;;;;;;;18.53;45.42;99972.13;10320604;28;20226;-69
2023/05/23 10:31:28;;;;;;;6.80;6.07;;;;;;;18.51;45.25;100014.88;10327739;28;20237;-70
2023/05/23 10:36:42;;;;;;;6.47;5.88;;;;;;;18.35;46.27;100011.75;10324296;28;20265;-69
2023/05/23 10:41:50;;;;;;;6.07;5.47;;;;;;;18.18;45.82;99998.03;10318388;28;20242;-69
2023/05/23 10:46:56;;;;;;;5.95;5.35;;;;;;;19.01;44.39;99963.81;10351692;28;20229;-69
2023/05/23 10:51:59;;;;;;;6.57;5.50;;;;;;;19.88;43.80;99967.53;10355940;28;20229;-69
2023/05/23 10:57:03;;;;;;;5.90;4.20;;;;;;;18.98;43.27;99952.63;10356364;28;20313;-69
2023/05/23 11:06:37;;;;;;;4.57;4.18;;;;;;;16.87;48.03;100068.47;10429147;27;2016388;-69
2023/05/23 11:11:59;;;;;;;3.90;3.45;;;;;;;19.54;45.02;100008.09;10464369;28;20240;-69
2023/05/23 11:17:18;;;;;;;4.65;4.00;;;;;;;19.83;44.52;99978.31;10428463;28;20319;-69
2023/05/23 11:22:20;;;;;;;4.00;3.60;;;;;;;18.13;46.23;100000.59;10423778;28;20326;-69
2023/05/23 11:27:30;;;;;;;4.40;4.00;;;;;;;18.28;46.08;99992.06;10426596;28;20275;-69
2023/05/23 11:32:33;;;;;;;5.28;3.85;;;;;;;18.78;45.28;100002.56;10445070;28;20232;-69
2023/05/23 11:37:37;;;;;;;3.70;3.40;;;;;;;17.76;47.20;100030.44;10454449;28;20227;-69
2023/05/23 11:42:42;;;;;;;4.03;3.63;;;;;;;16.98;48.48;99994.78;10459510;28;20263;-68
2023/05/23 11:47:44;;;;;;;4.13;3.53;;;;;;;18.61;45.28;99988.88;10455052;28;20711;-68
2023/05/23 11:52:50;;;;;;;4.10;3.70;;;;;;;17.92;46.48;99993.81;10455673;28;20233;-68
2023/05/23 11:57:55;;;;;;;3.50;3.20;;;;;;;18.51;46.43;99980.50;10457306;28;20236;-69
2023/05/23 12:02:56;;;;;;;3.20;3.00;;;;;;;17.06;48.79;99995.59;10450508;28;20246;-68
2023/05/23 12:07:59;;;;;;;3.43;3.13;;;;;;;16.78;48.69;99989.53;10453751;28;20601;-69
2023/05/23 12:13:01;;;;;;;3.28;2.72;;;;;;;18.47;46.24;99963.03;10419077;28;20273;-69
2023/05/23 12:18:03;;;;;;;3.00;2.78;;;;;;;17.76;47.46;100010.66;10402053;28;20299;-68
2023/05/23 12:23:05;;;;;;;2.95;2.58;;;;;;;17.83;47.08;99993.31;10397136;28;20232;-68
2023/05/23 12:28:12;;;;;;;3.20;2.90;;;;;;;17.82;47.12;99952.94;10393697;28;20239;-69
2023/05/23 12:33:16;;;;;;;3.05;2.83;;;;;;;17.62;47.42;99989.13;10421952;28;20248;-69
2023/05/23 12:38:18;;;;;;;2.95;2.75;;;;;;;17.54;46.85;99984.03;10430109;28;20240;-69
2023/05/23 12:43:20;;;;;;;3.10;2.85;;;;;;;18.36;45.62;99951.13;10381054;28;20229;-69
2023/05/23 12:48:21;;;;;;;4.00;3.40;;;;;;;19.43;44.88;99956.56;10395406;28;20304;-69
2023/05/23 12:53:25;;;;;;;3.25;2.95;;;;;;;18.35;45.44;99948.66;10390093;28;20957;-70
2023/05/23 12:58:27;;;;;;;4.13;2.90;;;;;;;18.18;45.74;99964.69;10390709;28;20300;-69
2023/05/23 13:03:31;;;;;;;3.15;2.85;;;;;;;18.46;45.71;99966.81;10398439;28;20283;-69
2023/05/23 13:08:33;;;;;;;3.20;2.90;;;;;;;18.78;44.78;99980.88;10386692;28;20699;-68
2023/05/23 13:13:35;;;;;;;2.90;2.70;;;;;;;18.76;44.71;99963.19;10395343;28;20258;-67
2023/05/23 13:18:37;;;;;;;4.47;3.70;;;;;;;18.62;45.12;99936.34;10425691;28;20266;-68
2023/05/23 13:23:38;;;;;;;4.47;3.58;;;;;;;19.93;44.85;99921.47;10426592;28;20239;-67
2023/05/23 13:28:40;;;;;;;5.22;2.95;;;;;;;18.46;46.03;99942.44;10425619;28;20340;-67
2023/05/23 13:33:42;;;;;;;3.13;2.83;;;;;;;20.15;43.89;99880.03;10392413;28;20243;-67
2023/05/23 13:38:43;;;;;;;2.95;2.70;;;;;;;19.67;43.69;99873.19;10425356;28;20232;-68
2023/05/23 13:43:45;;;;;;;3.42;3.13;;;;;;;20.21;43.66;99873.66;10428240;28;20232;-68
2023/05/23 13:48:47;;;;;;;2.42;2.22;;;;;;;18.05;42.52;99901.56;10426953;28;20334;-70
2023/05/23 13:53:49;;;;;;;2.85;2.65;;;;;;;19.72;41.58;99878.72;10418203;28;20256;-71
2023/05/23 13:58:50;;;;;;;4.28;3.13;;;;;;;19.43;42.21;99927.53;10388442;28;20275;-69
2023/05/23 14:03:52;;;;;;;4.50;3.63;;;;;;;18.41;43.99;99899.78;10429704;28;20281;-70
2023/05/23 14:08:54;;;;;;;4.82;3.95;;;;;;;18.88;43.90;99893.53;10424622;28;20323;-70
2023/05/23 14:13:56;;;;;;;4.18;3.78;;;;;;;18.03;45.21;99875.78;10422995;28;20247;-70
2023/05/23 14:19:00;;;;;;;4.47;3.95;;;;;;;19.01;44.56;99909.59;10423171;28;20266;-69
2023/05/23 14:24:02;;;;;;;6.70;3.92;;;;;;;18.20;44.94;99886.75;10416638;28;20855;-70
2023/05/23 14:29:04;;;;;;;5.25;4.22;;;;;;;18.24;45.37;99902.31;10418535;28;20229;-69
2023/05/23 14:34:05;;;;;;;4.75;4.20;;;;;;;19.01;44.19;99887.91;10414891;28;20281;-67
2023/05/23 14:39:08;;;;;;;4.68;4.03;;;;;;;19.49;43.68;99904.88;10420583;28;20263;-69
2023/05/23 14:44:11;;;;;;;5.82;4.28;;;;;;;19.99;42.58;99854.53;10419773;28;20231;-68
2023/05/23 14:49:14;;;;;;;4.82;4.10;;;;;;;20.82;41.34;99845.75;10420398;28;20238;-69
2023/05/23 14:54:16;;;;;;;5.32;3.50;;;;;;;21.14;40.91;99854.06;10414207;28;20248;-68
2023/05/23 14:59:18;;;;;;;3.83;3.50;;;;;;;20.71;40.68;99871.13;10420117;28;20232;-69
2023/05/23 15:04:19;;;;;;;4.43;4.03;;;;;;;22.11;40.60;99837.09;10413515;22;20237;-35
2023/05/23 15:09:21;;;;;;;4.45;4.03;;;;;;;22.79;39.67;99823.66;10383088;28;20243;-34
2023/05/23 15:14:28;;;;;;;4.90;4.40;;;;;;;18.77;44.50;99853.72;10389609;28;20761;-34
2023/05/23 15:19:29;;;;;;;6.47;4.80;;;;;;;17.98;44.76;99792.53;10387886;28;20236;-33
2023/05/23 15:24:31;;;;;;;4.95;4.43;;;;;;;21.02;41.94;99813.38;10390423;28;20619;-35
2023/05/23 15:29:38;;;;;;;6.18;5.47;;;;;;;18.78;44.92;99872.44;10390529;28;20648;-35
2023/05/23 15:34:40;;;;;;;5.82;5.25;;;;;;;19.57;44.45;99871.97;10384951;28;20339;-33
2023/05/23 15:39:42;;;;;;;5.60;4.97;;;;;;;18.69;44.58;99791.72;10386534;28;20435;-32
2023/05/23 15:44:43;;;;;;;6.07;5.47;;;;;;;19.39;43.67;99847.69;10391790;28;20319;-35
2023/05/23 15:49:45;;;;;;;5.35;4.68;;;;;;;19.82;43.82;99861.81;10388853;28;20228;-33
2023/05/23 15:54:47;;;;;;;5.60;4.88;;;;;;;19.34;44.17;99836.75;10393951;28;20233;-33
2023/05/23 15:59:49;;;;;;;5.80;5.07;;;;;;;19.75;44.07;99851.09;10391912;28;20260;-33
2023/05/23 16:04:51;;;;;;;6.30;5.43;;;;;;;18.59;45.72;99857.38;10391721;28;20240;-35
2023/05/23 16:09:52;;;;;;;6.90;5.22;;;;;;;19.75;44.32;99864.66;10399785;28;20752;-34
2023/05/23 16:14:54;;;;;;;9.00;5.07;;;;;;;20.17;43.61;99850.75;10395181;28;20286;-35
2023/05/23 16:19:56;;;;;;;5.97;5.38;;;;;;;19.79;44.01;99876.69;10386778;28;20324;-35
2023/05/23 16:24:58;;;;;;;6.00;5.35;;;;;;;18.62;45.41;99894.84;10389815;28;20677;-33
2023/05/23 16:29:59;;;;;;;7.72;5.60;;;;;;;18.83;44.95;99888.00;10387852;28;20213;-33
2023/05/23 16:35:01;;;;;;;7.97;6.18;;;;;;;20.03;43.69;99865.72;10384504;28;20312;-33
2023/05/23 16:40:04;;;;;;;5.55;5.05;;;;;;;18.15;45.60;99832.47;10392286;28;20233;-33
2023/05/23 16:45:06;;;;;;;6.20;5.60;;;;;;;17.84;46.25;99810.06;10391182;28;20229;-35
2023/05/23 16:50:09;;;;;;;7.00;5.05;;;;;;;18.41;45.00;99859.13;10385399;28;20308;-33
2023/05/23 16:55:10;;;;;;;5.88;5.15;;;;;;;19.93;43.97;99852.78;10387360;28;20714;-33
2023/05/23 17:00:12;;;;;;;6.30;5.57;;;;;;;18.53;45.44;99859.16;10397707;28;20310;-34
2023/05/23 17:05:14;;;;;;;8.10;5.75;;;;;;;19.41;44.37;99871.88;10383950;28;20240;-33
2023/05/23 17:10:16;;;;;;;7.70;5.68;;;;;;;19.15;43.98;99861.34;10390787;28;20229;-33
2023/05/23 17:15:20;;;;;;;7.38;5.55;;;;;;;18.04;45.39;99826.00;10390465;28;20642;-33
2023/05/23 17:20:25;;;;;;;9.57;6.63;;;;;;;18.26;45.66;99907.50;10385720;28;20324;-33
2023/05/23 17:25:27;;;;;;;7.38;6.57;;;;;;;18.38;45.75;99927.34;10378791;28;20233;-33
2023/05/23 17:30:28;;;;;;;8.85;6.75;;;;;;;17.97;45.38;99914.63;10386402;28;20237;-33
2023/05/23 17:35:30;;;;;;;7.28;6.45;;;;;;;19.28;44.11;99916.38;10382095;28;20267;-33
2023/05/23 17:40:32;;;;;;;7.77;6.70;;;;;;;19.12;44.98;99910.63;10376245;28;20209;-33
2023/05/23 17:45:33;;;;;;;7.63;6.45;;;;;;;18.94;44.76;99897.22;10383807;28;20386;-33
2023/05/23 17:50:35;;;;;;;7.43;6.20;;;;;;;19.32;44.82;99906.72;10383597;28;20323;-33
2023/05/23 17:55:37;;;;;;;6.68;5.90;;;;;;;18.39;45.12;99903.75;10380983;28;20333;-33
2023/05/23 18:00:39;;;;;;;8.00;6.22;;;;;;;18.43;45.33;99949.13;10418068;28;20263;-33
2023/05/23 18:05:41;;;;;;;8.82;6.90;;;;;;;17.38;46.18;99931.38;10433903;28;20246;-33
2023/05/23 18:10:46;;;;;;;7.45;6.35;;;;;;;19.31;44.03;99943.84;10429484;28;20251;-34
2023/05/23 18:15:51;;;;;;;9.03;7.50;;;;;;;18.88;44.32;99976.75;10434020;28;20612;-33
2023/05/23 18:20:52;;;;;;;9.03;7.87;;;;;;;18.08;45.26;99979.63;10428544;28;20252;-33
2023/05/23 18:25:54;;;;;;;10.95;8.75;;;;;;;18.07;45.14;99996.94;10427976;28;20244;-33
2023/05/23 18:30:56;;;;;;;11.10;9.20;;;;;;;18.59;44.17;99982.88;10429932;28;20236;-33
2023/05/23 18:35:57;;;;;;;11.43;8.50;;;;;;;18.14;44.74;99999.53;10426866;28;20678;-33
2023/05/23 18:40:59;;;;;;;11.10;9.70;;;;;;;18.77;43.77;99967.56;10432525;28;20246;-33
2023/05/23 18:46:01;;;;;;;11.07;9.30;;;;;;;17.82;44.93;99969.16;10413984;28;20761;-34
2023/05/23 18:51:03;;;;;;;11.30;10.03;;;;;;;18.00;45.41;100009.75;10389157;28;20231;-33
2023/05/23 18:56:05;;;;;;;12.20;10.00;;;;;;;18.73;44.49;99996.19;10391372;28;20228;-33
2023/05/23 19:01:07;;;;;;;12.57;9.60;;;;;;;17.59;45.55;100027.47;10388532;28;20672;-34
2023/05/23 19:06:08;;;;;;;11.23;9.00;;;;;;;17.19;46.17;100022.47;10386340;28;20340;-33
2023/05/23 19:11:10;;;;;;;11.33;8.47;;;;;;;18.30;44.20;100046.03;10382891;28;20621;-33
2023/05/23 19:16:12;;;;;;;10.67;9.00;;;;;;;18.84;43.26;100028.75;10386879;28;20633;-33
2023/05/23 19:21:14;;;;;;;11.60;8.63;;;;;;;18.74;42.87;100025.78;10385961;28;20306;-34
2023/05/23 19:26:16;;;;;;;14.13;8.57;;;;;;;16.44;46.53;100055.66;10390154;28;20239;-34
2023/05/23 19:31:19;;;;;;;10.40;9.07;;;;;;;17.68;44.62;100079.44;10393215;28;20510;-33
2023/05/23 19:36:21;;;;;;;10.00;8.90;;;;;;;15.72;47.00;100041.41;10394793;28;20279;-35
2023/05/23 19:41:23;;;;;;;14.40;8.00;;;;;;;16.19;46.19;100112.25;10397637;28;20237;-35
2023/05/23 19:46:28;;;;;;;11.40;8.80;;;;;;;15.40;46.94;100039.38;10396198;28;20320;-35
2023/05/23 19:51:30;;;;;;;11.27;8.53;;;;;;;15.48;47.44;100100.38;10396450;28;20222;-35
2023/05/23 19:56:34;;;;;;;9.93;8.77;;;;;;;14.61;48.04;100027.59;10389873;28;20532;-35
2023/05/23 20:01:36;;;;;;;9.07;7.93;;;;;;;14.73;47.08;100069.03;10391941;28;20243;-35
2023/05/23 20:06:38;;;;;;;9.10;7.17;;;;;;;16.00;45.96;100140.97;10388354;28;20233;-35
2023/05/23 20:11:41;;;;;;;8.13;6.90;;;;;;;14.23;48.00;100057.72;10384984;28;20303;-35
2023/05/23 20:16:43;;;;;;;9.70;7.70;;;;;;;16.06;45.23;100161.69;10392905;28;20245;-33
2023/05/23 20:21:45;;;;;;;9.47;6.80;;;;;;;15.31;46.14;100167.38;10392350;28;20229;-33
2023/05/23 20:26:47;;;;;;;7.63;6.33;;;;;;;15.30;45.13;100169.25;10394569;28;20232;-34
2023/05/23 20:31:48;;;;;;;8.60;6.40;;;;;;;14.93;45.74;100165.22;10395069;28;20251;-34
2023/05/23 20:36:51;;;;;;;10.73;6.37;;;;;;;15.12;45.41;100185.19;10388870;28;20228;-33
2023/05/23 20:41:53;;;;;;;8.27;6.67;;;;;;;14.35;46.31;100171.84;10391948;28;20280;-33
2023/05/23 20:46:55;;;;;;;6.90;6.07;;;;;;;14.39;46.77;100191.97;10393945;28;20315;-33
2023/05/23 20:51:57;;;;;;;10.90;6.40;;;;;;;15.80;44.69;100197.69;10388607;28;20247;-33
2023/05/23 20:57:01;;;;;;;7.27;5.97;;;;;;;15.42;44.77;100207.22;10383272;28;20229;-33
2023/05/23 21:02:04;;;;;;;8.10;6.33;;;;;;;14.30;45.85;100212.00;10394054;28;20241;-33
2023/05/23 21:07:06;;;;;;;9.37;5.77;;;;;;;14.06;46.33;100207.06;10389780;28;20236;-34
2023/05/23 21:12:08;;;;;;;7.90;5.03;;;;;;;13.71;45.94;100162.13;10388725;28;20233;-33
2023/05/23 21:17:10;;;;;;;6.07;5.30;;;;;;;14.87;45.31;100223.47;10372122;28;20586;-35
2023/05/23 21:22:13;;;;;;;9.83;6.53;;;;;;;15.69;44.05;100220.75;10389498;28;20220;-35
2023/05/23 21:27:14;;;;;;;7.37;4.87;;;;;;;15.62;43.75;100218.03;10368980;28;20241;-35
2023/05/23 21:32:17;;;;;;;6.57;5.73;;;;;;;14.32;44.73;100218.00;10388379;28;20575;-35
2023/05/23 21:37:18;;;;;;;7.57;5.70;;;;;;;16.04;43.46;100220.47;10391906;28;20655;-35
2023/05/23 21:42:20;;;;;;;7.73;4.83;;;;;;;14.20;44.30;100198.88;10390514;28;20608;-35
2023/05/23 21:47:23;;;;;;;7.50;5.00;;;;;;;14.51;44.32;100218.31;10378418;28;20236;-34
2023/05/23 21:52:25;;;;;;;7.27;4.73;;;;;;;14.23;45.47;100223.78;10382745;28;20579;-36
2023/05/23 21:57:28;;;;;;;7.03;4.90;;;;;;;13.67;46.51;100203.91;10379870;28;20260;-36
2023/05/23 22:02:30;;;;;;;6.63;4.80;;;;;;;14.71;43.85;100221.94;10389446;28;20762;-36
2023/05/23 22:07:32;;;;;;;6.40;4.60;;;;;;;14.83;44.28;100229.47;10385823;28;20267;-37
2023/05/23 22:12:35;;;;;;;6.87;4.33;;;;;;;15.32;43.88;100252.63;10389881;28;20294;-36
2023/05/23 22:17:41;;;;;;;5.10;4.30;;;;;;;14.17;44.63;100187.69;10383099;28;20225;-35
2023/05/23 22:22:44;;;;;;;11.40;5.07;;;;;;;14.51;45.06;100259.56;10389574;28;20307;-35
2023/05/23 22:27:45;;;;;;;7.50;4.93;;;;;;;14.90;44.36;100263.47;10386536;28;20233;-35
2023/05/23 22:32:47;;;;;;;6.83;4.30;;;;;;;15.40;43.45;100254.28;10384838;28;20342;-34
2023/05/23 22:37:49;;;;;;;7.07;4.47;;;;;;;15.64;43.31;100247.47;10431715;28;20236;-34
2023/05/23 22:42:50;;;;;;;7.57;4.80;;;;;;;16.55;42.30;100237.81;10394888;28;20237;-35
2023/05/23 22:47:52;;;;;;;6.67;4.33;;;;;;;16.24;42.90;100259.06;10384866;28;20573;-35
2023/05/23 22:52:54;;;;;;;6.90;4.50;;;;;;;15.13;44.01;100251.53;10432028;28;20232;-35
2023/05/23 22:57:56;;;;;;;7.80;4.30;;;;;;;15.35;44.02;100262.16;10392503;28;20261;-35
2023/05/23 23:02:58;;;;;;;5.77;4.37;;;;;;;15.88;43.29;100265.75;10374962;28;20249;-37
2023/05/23 23:08:00;;;;;;;8.37;4.33;;;;;;;14.77;44.65;100253.44;10384501;28;20236;-37
2023/05/23 23:13:02;;;;;;;6.10;4.13;;;;;;;16.23;43.44;100252.03;10390953;28;20347;-36
2023/05/23 23:18:04;;;;;;;5.30;4.07;;;;;;;14.59;44.42;100199.28;10388034;28;20747;-35